Time;durP1;ratioP1;P1;durP2;ratioP2;P2;SDS_P1;SDS_P2;PMS_P1;PMS_P2;Temp;Humidity;BMP_temperature;BMP_pressure;BME280_temperature;BME280_humidity;BME280_pressure;Samples;Min_cycle;Max_cycle;Signal;HPM_P1;HPM_P2
2021/01/21 00:02:26;;;;;;;;;;;7.80;93.60;;;;;;4913896;29;19928;-82
2021/01/21 00:04:53;;;;;;;;;;;7.80;93.50;;;;;;4906482;29;19908;-82
2021/01/21 00:07:20;;;;;;;;;;;7.90;93.00;;;;;;4893607;29;19908;-82
2021/01/21 00:09:47;;;;;;;;;;;7.90;92.90;;;;;;4893864;29;19923;-81
2021/01/21 00:12:14;;;;;;;;;;;7.90;93.00;;;;;;4870983;29;20358;-82
2021/01/21 00:14:41;;;;;;;;;;;7.90;93.00;;;;;;4864394;29;19928;-82
2021/01/21 00:17:09;;;;;;;;;;;7.90;92.50;;;;;;4874178;29;19924;-82
2021/01/21 00:19:38;;;;;;;;;;;8.00;91.90;;;;;;4892857;29;20350;-82
2021/01/21 00:22:05;;;;;;;;;;;8.00;91.50;;;;;;4897206;29;19932;-82
2021/01/21 00:24:32;;;;;;;;;;;8.00;91.30;;;;;;4879520;29;19924;-82
2021/01/21 00:26:59;;;;;;;;;;;8.10;91.00;;;;;;4876163;29;19934;-82
2021/01/21 00:29:29;;;;;;;;;;;8.10;90.80;;;;;;4885946;29;19924;-82
2021/01/21 00:31:56;;;;;;;;;;;8.10;90.50;;;;;;4859864;29;19934;-82
2021/01/21 00:34:24;;;;;;;;;;;8.10;90.40;;;;;;4874864;29;20280;-82
2021/01/21 00:36:51;;;;;;;;;;;8.20;90.70;;;;;;4889336;29;19924;-81
2021/01/21 00:39:18;;;;;;;;;;;8.10;90.90;;;;;;4857588;29;19924;-82
2021/01/21 00:41:46;;;;;;;;;;;8.10;91.30;;;;;;4887054;29;19934;-82
2021/01/21 00:44:13;;;;;;;;;;;8.20;90.90;;;;;;4888769;29;19934;-82
2021/01/21 00:46:40;;;;;;;;;;;8.10;90.80;;;;;;4882688;29;19924;-82
2021/01/21 00:49:10;;;;;;;;;;;8.10;91.10;;;;;;4876449;29;19950;-82
2021/01/21 00:51:38;;;;;;;;;;;8.10;90.80;;;;;;4876188;29;19923;-82
2021/01/21 00:54:05;;;;;;;;;;;8.10;90.90;;;;;;4863215;29;19935;-83
2021/01/21 00:56:36;;;;;;;;;;;8.20;90.90;;;;;;4894027;29;19927;-83
2021/01/21 00:59:03;;;;;;;;;;;8.10;90.80;;;;;;4869510;29;19908;-82
2021/01/21 01:01:30;;;;;;;;;;;8.10;91.20;;;;;;4893574;29;19939;-82
2021/01/21 01:04:02;;;;;;;;;;;8.00;91.60;;;;;;4878310;29;19908;-82
2021/01/21 01:06:29;;;;;;;;;;;8.00;92.00;;;;;;4875672;29;20178;-82
2021/01/21 01:08:58;;;;;;;;;;;8.10;91.00;;;;;;4867854;29;19934;-81
2021/01/21 01:11:27;;;;;;;;;;;8.10;90.60;;;;;;4855368;29;19990;-82
2021/01/21 01:13:57;;;;;;;;;;;8.10;90.20;;;;;;4853174;29;20227;-82
2021/01/21 01:16:25;;;;;;;;;;;8.20;90.10;;;;;;4877399;29;19938;-82
2021/01/21 01:19:02;;;;;;;;;;;8.20;90.20;;;;;;4887513;29;19919;-83
2021/01/21 01:21:29;;;;;;;;;;;8.20;89.80;;;;;;4868760;29;19944;-82
2021/01/21 01:23:58;;;;;;;;;;;8.20;90.20;;;;;;4894319;29;19924;-82
2021/01/21 01:26:27;;;;;;;;;;;8.20;90.60;;;;;;4875302;29;19930;-82
2021/01/21 01:29:03;;;;;;;;;;;8.20;90.80;;;;;;4850192;29;19924;-82
2021/01/21 01:31:34;;;;;;;;;;;8.20;91.40;;;;;;4881782;29;19930;-82
2021/01/21 01:34:03;;;;;;;;;;;8.20;91.50;;;;;;4887039;29;20376;-81
2021/01/21 01:36:35;;;;;;;;;;;8.20;91.80;;;;;;4885644;29;19963;-82
2021/01/21 01:39:04;;;;;;;;;;;8.10;92.10;;;;;;4898015;29;19985;-82
2021/01/21 01:41:45;;;;;;;;;;;8.10;92.10;;;;;;4854845;29;19934;-82
2021/01/21 01:44:12;;;;;;;;;;;8.20;92.00;;;;;;4882495;29;19924;-82
2021/01/21 01:46:44;;;;;;;;;;;8.10;92.30;;;;;;4866217;29;19924;-82
2021/01/21 01:49:17;;;;;;;;;;;8.10;92.40;;;;;;4861510;29;19927;-81
2021/01/21 01:51:45;;;;;;;;;;;8.10;92.70;;;;;;4867970;29;19923;-82
2021/01/21 01:54:14;;;;;;;;;;;8.00;93.10;;;;;;4859528;29;19924;-82
2021/01/21 01:56:48;;;;;;;;;;;8.00;93.50;;;;;;4874792;29;19923;-81
2021/01/21 01:59:21;;;;;;;;;;;8.00;93.50;;;;;;4866760;29;19923;-82
2021/01/21 02:01:57;;;;;;;;;;;8.00;93.80;;;;;;4872149;29;19946;-82
2021/01/21 02:04:30;;;;;;;;;;;7.90;94.30;;;;;;4888303;29;19930;-82
2021/01/21 02:07:26;;;;;;;;;;;8.00;94.50;;;;;;4867741;29;19924;-82
2021/01/21 02:10:01;;;;;;;;;;;7.90;94.70;;;;;;4886532;29;19969;-82
2021/01/21 02:12:37;;;;;;;;;;;7.90;94.80;;;;;;4890734;29;19924;-82
2021/01/21 02:15:06;;;;;;;;;;;7.90;95.10;;;;;;4876771;29;19924;-82
2021/01/21 02:17:52;;;;;;;;;;;7.90;95.30;;;;;;4851567;29;19924;-81
2021/01/21 02:20:37;;;;;;;;;;;7.90;95.30;;;;;;4866003;29;20007;-82
2021/01/21 02:23:19;;;;;;;;;;;7.90;95.10;;;;;;4843258;29;19932;-83
2021/01/21 02:25:52;;;;;;;;;;;7.90;94.90;;;;;;4892140;29;19912;-83
2021/01/21 02:28:34;;;;;;;;;;;8.00;94.70;;;;;;4867312;29;19923;-83
2021/01/21 02:31:03;;;;;;;;;;;8.00;94.60;;;;;;4869224;29;19924;-82
2021/01/21 02:33:54;;;;;;;;;;;8.00;94.20;;;;;;4885663;29;20005;-82
2021/01/21 02:36:24;;;;;;;;;;;8.00;93.60;;;;;;4874386;29;19924;-83
2021/01/21 02:38:53;;;;;;;;;;;8.10;93.10;;;;;;4881150;29;19924;-83
2021/01/21 02:41:22;;;;;;;;;;;8.10;92.90;;;;;;4868137;29;19915;-83
2021/01/21 02:43:53;;;;;;;;;;;8.10;92.20;;;;;;4876945;29;19924;-83
2021/01/21 02:46:25;;;;;;;;;;;8.20;91.70;;;;;;4874616;29;19908;-83
2021/01/21 02:48:55;;;;;;;;;;;8.20;91.30;;;;;;4888972;29;19914;-82
2021/01/21 02:51:34;;;;;;;;;;;8.20;91.10;;;;;;4905455;29;19924;-83
2021/01/21 02:54:11;;;;;;;;;;;8.20;91.30;;;;;;4889486;29;19924;-82
2021/01/21 02:56:40;;;;;;;;;;;8.20;91.00;;;;;;4862704;29;19935;-82
2021/01/21 02:59:12;;;;;;;;;;;8.20;91.00;;;;;;4868901;29;19924;-82
2021/01/21 03:01:41;;;;;;;;;;;8.20;90.80;;;;;;4847737;29;19924;-82
2021/01/21 03:04:10;;;;;;;;;;;8.20;90.90;;;;;;4881906;29;19924;-80
2021/01/21 03:06:42;;;;;;;;;;;8.20;90.70;;;;;;4877515;29;19924;-81
2021/01/21 03:09:23;;;;;;;;;;;8.20;90.00;;;;;;4851743;29;19924;-83
2021/01/21 03:11:53;;;;;;;;;;;8.30;89.90;;;;;;4867867;29;19924;-83
2021/01/21 03:14:21;;;;;;;;;;;8.30;88.70;;;;;;4876327;29;19924;-82
2021/01/21 03:16:55;;;;;;;;;;;8.30;88.30;;;;;;4892131;29;19924;-82
2021/01/21 03:19:30;;;;;;;;;;;8.40;87.10;;;;;;4881140;29;19924;-82
2021/01/21 03:21:57;;;;;;;;;;;8.40;87.00;;;;;;4886174;29;19931;-82
2021/01/21 03:24:25;;;;;;;;;;;8.40;85.60;;;;;;4881765;29;19928;-82
2021/01/21 03:27:01;;;;;;;;;;;8.50;84.70;;;;;;4883198;29;20270;-82
2021/01/21 03:29:29;;;;;;;;;;;8.50;83.00;;;;;;4907505;29;19924;-81
2021/01/21 03:31:57;;;;;;;;;;;8.60;82.70;;;;;;4890259;29;19938;-82
2021/01/21 03:34:31;;;;;;;;;;;8.60;81.00;;;;;;4891267;29;19924;-82
2021/01/21 03:37:05;;;;;;;;;;;8.70;80.90;;;;;;4898554;29;19931;-82
2021/01/21 03:39:37;;;;;;;;;;;8.70;79.70;;;;;;4874569;29;19938;-82
2021/01/21 03:42:25;;;;;;;;;;;8.80;79.00;;;;;;4866053;29;19923;-82
2021/01/21 03:45:11;;;;;;;;;;;8.80;78.60;;;;;;4873993;29;19930;-82
2021/01/21 03:47:38;;;;;;;;;;;8.80;78.00;;;;;;4897535;29;20025;-82
2021/01/21 03:50:09;;;;;;;;;;;8.80;78.50;;;;;;4885938;29;19934;-81
2021/01/21 03:52:39;;;;;;;;;;;8.90;77.50;;;;;;4883310;29;19934;-81
2021/01/21 03:55:11;;;;;;;;;;;8.90;76.00;;;;;;4875721;29;19986;-81
2021/01/21 03:57:39;;;;;;;;;;;8.90;76.00;;;;;;4877187;29;19924;-81
2021/01/21 04:00:26;;;;;;;;;;;8.90;76.20;;;;;;4870482;29;20343;-81
2021/01/21 04:02:56;;;;;;;;;;;8.90;76.40;;;;;;4882396;29;20262;-82
2021/01/21 04:05:34;;;;;;;;;;;9.00;75.10;;;;;;4863232;29;19924;-82
2021/01/21 04:08:02;;;;;;;;;;;9.00;75.00;;;;;;4877714;29;19924;-82
2021/01/21 04:10:38;;;;;;;;;;;9.00;74.10;;;;;;4869371;29;19961;-82
2021/01/21 04:13:13;;;;;;;;;;;9.00;73.90;;;;;;4880747;29;19924;-81
2021/01/21 04:15:40;;;;;;;;;;;9.00;72.80;;;;;;4885310;29;19934;-81
2021/01/21 04:18:08;;;;;;;;;;;9.10;72.00;;;;;;4885819;29;19930;-82
2021/01/21 04:20:56;;;;;;;;;;;9.10;72.30;;;;;;4869371;29;19924;-81
2021/01/21 04:23:23;;;;;;;;;;;9.10;71.40;;;;;;4857039;29;20380;-81
2021/01/21 04:25:50;;;;;;;;;;;9.10;70.60;;;;;;4890386;29;20404;-82
2021/01/21 04:28:18;;;;;;;;;;;9.20;70.00;;;;;;4860033;29;19923;-82
2021/01/21 04:30:48;;;;;;;;;;;9.20;69.60;;;;;;4905429;29;19932;-81
2021/01/21 04:33:15;;;;;;;;;;;9.20;70.60;;;;;;4907380;29;19924;-81
2021/01/21 04:35:43;;;;;;;;;;;9.10;71.30;;;;;;4873943;29;19935;-83
2021/01/21 04:38:14;;;;;;;;;;;9.10;72.00;;;;;;4884799;29;19923;-82
2021/01/21 04:40:55;;;;;;;;;;;9.00;72.10;;;;;;4878279;29;19924;-81
2021/01/21 04:43:42;;;;;;;;;;;9.00;73.10;;;;;;4888811;29;19924;-81
2021/01/21 04:46:20;;;;;;;;;;;8.90;72.50;;;;;;4873381;29;19924;-81
2021/01/21 04:48:52;;;;;;;;;;;8.90;73.10;;;;;;4874037;29;19930;-82
2021/01/21 04:51:20;;;;;;;;;;;8.90;73.80;;;;;;4875493;29;19934;-82
2021/01/21 04:54:06;;;;;;;;;;;8.90;73.10;;;;;;4905392;29;19923;-82
2021/01/21 04:56:59;;;;;;;;;;;8.90;72.60;;;;;;4873246;29;19923;-81
2021/01/21 04:59:38;;;;;;;;;;;8.90;73.10;;;;;;4879703;29;19935;-81
2021/01/21 05:02:08;;;;;;;;;;;8.90;73.40;;;;;;4884197;29;19932;-82
2021/01/21 05:04:39;;;;;;;;;;;8.90;73.90;;;;;;4896495;29;19935;-82
2021/01/21 05:07:14;;;;;;;;;;;8.80;74.70;;;;;;4846431;29;19928;-82
2021/01/21 05:09:43;;;;;;;;;;;8.80;74.90;;;;;;4869967;29;19924;-82
2021/01/21 05:12:15;;;;;;;;;;;8.80;75.90;;;;;;4855884;29;19928;-81
2021/01/21 05:15:01;;;;;;;;;;;8.80;75.70;;;;;;4897936;29;19924;-82
2021/01/21 05:17:37;;;;;;;;;;;8.80;75.80;;;;;;4882120;29;19915;-82
2021/01/21 05:20:42;;;;;;;;;;;8.80;75.90;;;;;;4893036;29;19993;-82
2021/01/21 05:23:35;;;;;;;;;;;8.80;75.90;;;;;;4883721;29;19923;-82
2021/01/21 05:26:13;;;;;;;;;;;8.80;76.50;;;;;;4886489;29;19930;-82
2021/01/21 05:31:48;;;;;;;;;;;8.80;76.90;;;;;;4893137;29;19930;-81
2021/01/21 05:34:18;;;;;;;;;;;8.80;77.50;;;;;;4888697;29;19914;-81
2021/01/21 05:37:15;;;;;;;;;;;8.80;78.00;;;;;;4872906;29;19908;-82
2021/01/21 05:40:03;;;;;;;;;;;8.70;78.90;;;;;;4887047;29;19908;-82
2021/01/21 05:42:52;;;;;;;;;;;8.70;79.40;;;;;;4863224;29;19924;-82
2021/01/21 05:45:35;;;;;;;;;;;8.80;80.00;;;;;;4885659;29;19923;-82
2021/01/21 05:48:12;;;;;;;;;;;8.80;80.90;;;;;;4871949;29;19908;-82
2021/01/21 05:50:40;;;;;;;;;;;8.80;80.40;;;;;;4894276;29;19912;-81
2021/01/21 05:53:09;;;;;;;;;;;8.80;80.70;;;;;;4897673;29;20355;-82
2021/01/21 05:55:42;;;;;;;;;;;8.70;81.60;;;;;;4852874;29;19924;-81
2021/01/21 05:58:11;;;;;;;;;;;8.80;81.50;;;;;;4866972;29;19928;-82
2021/01/21 06:00:43;;;;;;;;;;;8.90;81.40;;;;;;4886055;29;19923;-81
2021/01/21 06:03:27;;;;;;;;;;;8.90;82.10;;;;;;4876012;29;19924;-83
2021/01/21 06:06:11;;;;;;;;;;;8.90;82.90;;;;;;4883860;29;19922;-83
2021/01/21 06:08:39;;;;;;;;;;;8.80;83.90;;;;;;4899229;29;19923;-82
2021/01/21 06:11:08;;;;;;;;;;;8.70;84.60;;;;;;4875697;29;19924;-82
2021/01/21 06:13:37;;;;;;;;;;;8.70;85.10;;;;;;4889846;29;19944;-83
2021/01/21 06:16:07;;;;;;;;;;;8.70;86.70;;;;;;4876800;29;19924;-82
2021/01/21 06:18:34;;;;;;;;;;;8.70;86.90;;;;;;4916826;29;19943;-82
2021/01/21 06:21:18;;;;;;;;;;;8.80;86.40;;;;;;4906341;29;19908;-83
2021/01/21 06:24:01;;;;;;;;;;;8.80;86.10;;;;;;4904320;29;19924;-81
2021/01/21 06:26:41;;;;;;;;;;;8.70;86.40;;;;;;4882636;29;19924;-82
2021/01/21 06:29:14;;;;;;;;;;;8.70;85.30;;;;;;4889014;29;19938;-83
2021/01/21 06:31:43;;;;;;;;;;;8.70;85.60;;;;;;4887873;29;19934;-83
2021/01/21 06:34:12;;;;;;;;;;;8.70;85.00;;;;;;4887451;29;19908;-83
2021/01/21 06:36:42;;;;;;;;;;;8.80;84.90;;;;;;4888339;29;19923;-83
2021/01/21 06:39:11;;;;;;;;;;;8.70;85.20;;;;;;4895226;29;19933;-83
2021/01/21 06:41:41;;;;;;;;;;;8.70;85.10;;;;;;4900869;29;19924;-81
2021/01/21 06:44:09;;;;;;;;;;;8.80;84.50;;;;;;4916635;29;19928;-82
2021/01/21 06:46:37;;;;;;;;;;;8.80;84.00;;;;;;4886552;29;19915;-83
2021/01/21 06:49:04;;;;;;;;;;;8.80;84.20;;;;;;4899334;29;19924;-83
2021/01/21 06:51:31;;;;;;;;;;;8.80;83.80;;;;;;4917562;29;19924;-82
2021/01/21 06:53:59;;;;;;;;;;;8.80;83.60;;;;;;4920973;29;19934;-84
2021/01/21 06:56:31;;;;;;;;;;;8.80;83.10;;;;;;4907067;29;19915;-84
2021/01/21 06:59:00;;;;;;;;;;;8.90;82.00;;;;;;4906000;29;19928;-83
2021/01/21 07:01:48;;;;;;;;;;;9.00;81.70;;;;;;4890604;29;19922;-83
2021/01/21 07:04:25;;;;;;;;;;;9.00;81.20;;;;;;4895622;29;19934;-84
2021/01/21 07:07:00;;;;;;;;;;;9.10;80.80;;;;;;4898407;29;19908;-83
2021/01/21 07:09:27;;;;;;;;;;;9.00;81.00;;;;;;4905407;29;19923;-83
2021/01/21 07:11:58;;;;;;;;;;;9.00;81.00;;;;;;4890118;29;19924;-83
2021/01/21 07:14:26;;;;;;;;;;;9.10;80.80;;;;;;4904561;29;19934;-83
2021/01/21 07:16:55;;;;;;;;;;;9.10;79.60;;;;;;4906249;29;19931;-83
2021/01/21 07:19:34;;;;;;;;;;;9.00;79.20;;;;;;4904692;29;19919;-83
2021/01/21 07:22:12;;;;;;;;;;;9.10;78.70;;;;;;4920637;29;19907;-83
2021/01/21 07:24:48;;;;;;;;;;;9.20;78.00;;;;;;4898753;29;19932;-83
2021/01/21 07:27:19;;;;;;;;;;;9.20;77.80;;;;;;4883793;29;19908;-83
2021/01/21 07:29:47;;;;;;;;;;;9.20;77.40;;;;;;4892501;29;19923;-83
2021/01/21 07:32:15;;;;;;;;;;;9.20;77.80;;;;;;4908160;29;19923;-84
2021/01/21 07:34:47;;;;;;;;;;;9.10;77.50;;;;;;4909181;29;19913;-83
2021/01/21 07:37:21;;;;;;;;;;;9.20;77.90;;;;;;4924858;29;19907;-84
2021/01/21 07:39:54;;;;;;;;;;;9.30;77.50;;;;;;4893469;29;19923;-83
2021/01/21 07:42:22;;;;;;;;;;;9.20;76.90;;;;;;4899833;29;19923;-83
2021/01/21 07:44:57;;;;;;;;;;;9.30;77.20;;;;;;4904267;29;19942;-83
2021/01/21 07:47:30;;;;;;;;;;;9.30;76.50;;;;;;4893941;29;19914;-83
2021/01/21 07:50:16;;;;;;;;;;;9.40;76.40;;;;;;4907927;29;19914;-82
2021/01/21 07:52:45;;;;;;;;;;;9.30;76.80;;;;;;4893334;29;19923;-84
2021/01/21 07:55:13;;;;;;;;;;;9.40;75.90;;;;;;4893320;29;19908;-84
2021/01/21 07:57:42;;;;;;;;;;;9.50;76.10;;;;;;4908838;29;19914;-83
2021/01/21 08:00:11;;;;;;;;;;;9.50;75.60;;;;;;4893413;29;19927;-83
2021/01/21 08:02:43;;;;;;;;;;;9.50;74.90;;;;;;4893656;29;19914;-83
2021/01/21 08:05:11;;;;;;;;;;;9.60;73.70;;;;;;4892598;29;19919;-83
2021/01/21 08:07:48;;;;;;;;;;;9.70;72.80;;;;;;4893699;29;19936;-84
2021/01/21 08:10:18;;;;;;;;;;;9.70;72.40;;;;;;4900898;29;19933;-82
2021/01/21 08:12:50;;;;;;;;;;;9.80;72.00;;;;;;4905521;29;19930;-83
2021/01/21 08:15:19;;;;;;;;;;;9.70;72.00;;;;;;4893520;29;19957;-83
2021/01/21 08:17:49;;;;;;;;;;;9.80;70.80;;;;;;4907240;29;19924;-83
2021/01/21 08:20:17;;;;;;;;;;;9.90;70.70;;;;;;4906608;29;19911;-83
2021/01/21 08:22:52;;;;;;;;;;;10.00;69.50;;;;;;4908421;29;19924;-84
2021/01/21 08:25:20;;;;;;;;;;;10.00;69.20;;;;;;4906188;29;19914;-83
2021/01/21 08:27:49;;;;;;;;;;;10.10;69.10;;;;;;4892180;29;19907;-84
2021/01/21 08:30:21;;;;;;;;;;;10.10;68.70;;;;;;4888816;29;19930;-84
2021/01/21 08:32:51;;;;;;;;;;;10.00;68.80;;;;;;4904971;29;20273;-83
2021/01/21 08:35:26;;;;;;;;;;;10.10;68.20;;;;;;4919992;29;19923;-83
2021/01/21 08:37:55;;;;;;;;;;;9.90;68.40;;;;;;4904902;29;19914;-83
2021/01/21 08:40:24;;;;;;;;;;;10.00;68.30;;;;;;4888695;29;19911;-83
2021/01/21 08:42:53;;;;;;;;;;;10.00;67.80;;;;;;4903753;29;19923;-83
2021/01/21 08:45:21;;;;;;;;;;;10.10;67.40;;;;;;4893631;29;19916;-83
2021/01/21 08:47:50;;;;;;;;;;;10.10;67.80;;;;;;4886241;29;19918;-84
2021/01/21 08:50:20;;;;;;;;;;;10.00;67.80;;;;;;4897278;29;19926;-83
2021/01/21 08:53:02;;;;;;;;;;;10.10;67.50;;;;;;4888570;29;19934;-83
2021/01/21 08:55:40;;;;;;;;;;;10.10;67.30;;;;;;4916375;29;19924;-83
2021/01/21 08:58:10;;;;;;;;;;;10.10;67.50;;;;;;4904720;29;19934;-84
2021/01/21 09:00:39;;;;;;;;;;;10.10;67.40;;;;;;4886819;29;19934;-84
2021/01/21 09:03:07;;;;;;;;;;;10.20;67.20;;;;;;4902649;29;19914;-83
2021/01/21 09:05:36;;;;;;;;;;;10.10;67.10;;;;;;4903524;29;19914;-83
2021/01/21 09:08:06;;;;;;;;;;;10.10;67.30;;;;;;4902462;29;19938;-83
2021/01/21 09:10:43;;;;;;;;;;;10.10;68.00;;;;;;4887891;29;19924;-84
2021/01/21 09:13:16;;;;;;;;;;;10.10;67.70;;;;;;4897904;29;19926;-83
2021/01/21 09:15:52;;;;;;;;;;;10.20;67.30;;;;;;4874761;29;20294;-83
2021/01/21 09:18:20;;;;;;;;;;;10.20;68.00;;;;;;4901911;29;19930;-83
2021/01/21 09:20:49;;;;;;;;;;;10.20;67.70;;;;;;4902785;29;19924;-83
2021/01/21 09:23:19;;;;;;;;;;;10.30;68.20;;;;;;4901602;29;19993;-83
2021/01/21 09:25:51;;;;;;;;;;;10.30;67.90;;;;;;4886636;29;19907;-83
2021/01/21 09:28:26;;;;;;;;;;;10.30;67.60;;;;;;4897820;29;19923;-83
2021/01/21 09:30:54;;;;;;;;;;;10.40;67.20;;;;;;4892769;29;19923;-82
2021/01/21 09:33:26;;;;;;;;;;;10.50;67.40;;;;;;4901452;29;19924;-84
2021/01/21 09:35:55;;;;;;;;;;;10.50;67.40;;;;;;4885321;29;19924;-83
2021/01/21 09:38:23;;;;;;;;;;;10.60;67.00;;;;;;4901384;29;19930;-83
2021/01/21 09:40:51;;;;;;;;;;;10.70;66.00;;;;;;4884715;29;19933;-82
2021/01/21 09:43:20;;;;;;;;;;;10.80;65.50;;;;;;4897771;29;19931;-84
2021/01/21 09:45:47;;;;;;;;;;;10.90;64.90;;;;;;4867821;29;19934;-83
2021/01/21 09:48:16;;;;;;;;;;;10.90;64.10;;;;;;4881473;29;19924;-82
2021/01/21 09:50:44;;;;;;;;;;;11.10;62.50;;;;;;4896141;29;19924;-83
2021/01/21 09:53:13;;;;;;;;;;;11.10;62.10;;;;;;4878755;29;19938;-82
2021/01/21 09:55:42;;;;;;;;;;;11.20;61.20;;;;;;4900619;29;19923;-83
2021/01/21 09:58:10;;;;;;;;;;;11.30;61.10;;;;;;4880274;29;19951;-82
2021/01/21 10:00:38;;;;;;;;;;;11.30;61.30;;;;;;4898063;29;19934;-82
2021/01/21 10:03:05;;;;;;;;;;;11.30;60.70;;;;;;4878607;29;20288;-83
2021/01/21 10:05:33;;;;;;;;;;;11.30;60.70;;;;;;4894957;29;19923;-82
2021/01/21 10:08:01;;;;;;;;;;;11.40;61.10;;;;;;4900080;29;19915;-83
2021/01/21 10:10:30;;;;;;;;;;;11.40;61.10;;;;;;4900259;29;19934;-83
2021/01/21 10:12:59;;;;;;;;;;;11.40;61.10;;;;;;4881771;29;19928;-82
2021/01/21 10:15:27;;;;;;;;;;;11.30;61.90;;;;;;4883710;29;19989;-82
2021/01/21 10:17:57;;;;;;;;;;;11.20;62.40;;;;;;4897591;29;19934;-83
2021/01/21 10:20:25;;;;;;;;;;;11.20;63.00;;;;;;4897957;29;19923;-83
2021/01/21 10:22:58;;;;;;;;;;;11.30;63.10;;;;;;4898884;29;20339;-82
2021/01/21 10:25:28;;;;;;;;;;;11.40;63.20;;;;;;4897729;29;19923;-83
2021/01/21 10:27:57;;;;;;;;;;;11.20;63.70;;;;;;4899845;29;19923;-83
2021/01/21 10:30:26;;;;;;;;;;;11.20;63.80;;;;;;4883167;29;19924;-83
2021/01/21 10:32:55;;;;;;;;;;;11.30;64.20;;;;;;4899872;29;19923;-83
2021/01/21 10:35:23;;;;;;;;;;;11.40;64.30;;;;;;4900773;29;19914;-83
2021/01/21 10:37:51;;;;;;;;;;;11.40;64.60;;;;;;4898986;29;19907;-83
2021/01/21 10:40:19;;;;;;;;;;;11.50;63.90;;;;;;4901792;29;19912;-84
2021/01/21 10:42:48;;;;;;;;;;;11.60;64.00;;;;;;4901496;29;19930;-83
2021/01/21 10:45:20;;;;;;;;;;;11.70;63.80;;;;;;4890608;29;19908;-82
2021/01/21 10:47:50;;;;;;;;;;;11.80;64.10;;;;;;4883480;29;19959;-83
2021/01/21 10:50:18;;;;;;;;;;;11.80;63.90;;;;;;4883867;29;19908;-82
2021/01/21 10:52:46;;;;;;;;;;;11.90;64.20;;;;;;4850824;29;19924;-83
2021/01/21 10:55:16;;;;;;;;;;;12.00;63.80;;;;;;4875562;29;19924;-83
2021/01/21 10:57:57;;;;;;;;;;;12.10;64.00;;;;;;4883435;29;19907;-83
2021/01/21 11:00:37;;;;;;;;;;;12.20;64.30;;;;;;4898074;29;19914;-83
2021/01/21 11:03:09;;;;;;;;;;;12.30;64.20;;;;;;4884582;29;19908;-85
2021/01/21 11:05:37;;;;;;;;;;;12.30;64.30;;;;;;4904528;29;19924;-84
2021/01/21 11:08:05;;;;;;;;;;;12.40;64.40;;;;;;4906377;29;19934;-83
2021/01/21 11:10:34;;;;;;;;;;;12.40;64.40;;;;;;5276391;24;19953;-83
2021/01/21 11:13:02;;;;;;;;;;;12.50;64.30;;;;;;4941859;23;19908;-83
2021/01/21 11:15:31;;;;;;;;;;;12.50;64.30;;;;;;4905629;29;19937;-84
2021/01/21 11:17:59;;;;;;;;;;;12.50;64.30;;;;;;4890769;29;19911;-83
2021/01/21 11:20:32;;;;;;;;;;;12.60;64.30;;;;;;4907509;23;19924;-80
2021/01/21 11:22:59;;;;;;;;;;;12.70;64.00;;;;;;4881861;29;19922;-79
2021/01/21 11:25:26;;;;;;;;;;;12.80;64.10;;;;;;4884335;29;19935;-79
2021/01/21 11:27:54;;;;;;;;;;;12.80;63.70;;;;;;4887307;29;19931;-80
2021/01/21 11:30:24;;;;;;;;;;;13.00;63.50;;;;;;4881596;29;21000;-79
2021/01/21 11:32:52;;;;;;;;;;;13.10;63.20;;;;;;4900258;29;19930;-81
2021/01/21 11:35:24;;;;;;;;;;;13.20;63.50;;;;;;4900835;29;19934;-79
2021/01/21 11:37:51;;;;;;;;;;;13.20;63.40;;;;;;4899950;29;19924;-78
2021/01/21 11:40:19;;;;;;;;;;;13.10;64.10;;;;;;4899581;29;19939;-78
2021/01/21 11:42:46;;;;;;;;;;;13.10;64.40;;;;;;4900465;29;19924;-77
2021/01/21 11:45:19;;;;;;;;;;;13.10;64.30;;;;;;4888401;29;19930;-77
2021/01/21 11:47:48;;;;;;;;;;;13.00;64.60;;;;;;4902263;29;19934;-76
2021/01/21 11:50:17;;;;;;;;;;;12.90;64.90;;;;;;4913422;29;19934;-76
2021/01/21 11:52:45;;;;;;;;;;;12.90;66.40;;;;;;4911999;29;19923;-77
2021/01/21 11:55:15;;;;;;;;;;;12.90;65.90;;;;;;4917487;29;19930;-78
2021/01/21 11:57:46;;;;;;;;;;;13.00;65.80;;;;;;4880430;29;19947;-76
2021/01/21 12:00:16;;;;;;;;;;;13.00;66.00;;;;;;4881088;29;19935;-78
2021/01/21 12:02:44;;;;;;;;;;;12.90;66.70;;;;;;4901524;29;19930;-76
2021/01/21 12:05:16;;;;;;;;;;;12.90;66.80;;;;;;4908491;29;19923;-78
2021/01/21 12:07:43;;;;;;;;;;;12.90;67.00;;;;;;4896344;29;19923;-79
2021/01/21 12:10:18;;;;;;;;;;;12.90;67.30;;;;;;4893970;29;19934;-78
2021/01/21 12:12:45;;;;;;;;;;;12.80;67.60;;;;;;4880136;29;19924;-78
2021/01/21 12:15:13;;;;;;;;;;;12.80;67.90;;;;;;4893693;29;19923;-78
2021/01/21 12:17:41;;;;;;;;;;;12.80;68.30;;;;;;4917297;29;19923;-77
2021/01/21 12:20:09;;;;;;;;;;;12.80;68.50;;;;;;4894694;29;19927;-79
2021/01/21 12:22:37;;;;;;;;;;;12.80;68.40;;;;;;4889849;29;19924;-78
2021/01/21 12:25:05;;;;;;;;;;;12.80;69.20;;;;;;4883807;29;19934;-78
2021/01/21 12:27:32;;;;;;;;;;;12.90;69.30;;;;;;4896499;29;19923;-78
2021/01/21 12:29:59;;;;;;;;;;;13.00;68.40;;;;;;4883324;29;19949;-77
2021/01/21 12:32:30;;;;;;;;;;;12.90;68.60;;;;;;4883653;29;19928;-77
2021/01/21 12:34:59;;;;;;;;;;;12.90;68.70;;;;;;4899815;29;19923;-77
2021/01/21 12:37:27;;;;;;;;;;;12.90;69.00;;;;;;4890817;29;19923;-78
2021/01/21 12:39:57;;;;;;;;;;;12.90;69.40;;;;;;4874414;29;19923;-79
2021/01/21 12:42:24;;;;;;;;;;;13.00;69.40;;;;;;4896295;29;19951;-78
2021/01/21 12:44:51;;;;;;;;;;;13.00;69.00;;;;;;4897429;29;19923;-79
2021/01/21 12:47:21;;;;;;;;;;;12.90;69.80;;;;;;4897669;29;19923;-76
2021/01/21 12:49:48;;;;;;;;;;;12.80;71.20;;;;;;4901206;29;19938;-78
2021/01/21 12:52:16;;;;;;;;;;;12.70;71.60;;;;;;4891706;29;19934;-78
2021/01/21 12:54:47;;;;;;;;;;;12.70;72.70;;;;;;4882970;29;20266;-78
2021/01/21 12:57:17;;;;;;;;;;;12.70;72.10;;;;;;4899316;29;20022;-77
2021/01/21 12:59:47;;;;;;;;;;;12.70;72.60;;;;;;4889297;29;19923;-78
2021/01/21 13:02:17;;;;;;;;;;;12.70;72.80;;;;;;4891055;29;20277;-78
2021/01/21 13:04:48;;;;;;;;;;;12.70;72.50;;;;;;4881517;29;20258;-78
2021/01/21 13:07:17;;;;;;;;;;;12.70;72.80;;;;;;4890417;29;20384;-77
2021/01/21 13:09:49;;;;;;;;;;;12.80;72.90;;;;;;4890916;29;19923;-77
2021/01/21 13:12:21;;;;;;;;;;;12.80;73.10;;;;;;4893458;29;19923;-77
2021/01/21 13:14:51;;;;;;;;;;;12.80;72.40;;;;;;4892809;29;19934;-77
2021/01/21 13:17:24;;;;;;;;;;;12.80;72.10;;;;;;4874452;29;20365;-78
2021/01/21 13:19:53;;;;;;;;;;;12.70;73.20;;;;;;4882312;29;20455;-78
2021/01/21 13:22:21;;;;;;;;;;;12.70;73.30;;;;;;4914658;29;19928;-78
2021/01/21 13:24:51;;;;;;;;;;;12.70;73.40;;;;;;4900797;29;19928;-78
2021/01/21 13:27:20;;;;;;;;;;;12.60;73.80;;;;;;4886780;29;19928;-78
2021/01/21 13:29:50;;;;;;;;;;;12.60;74.40;;;;;;4893262;29;20526;-77
2021/01/21 13:32:18;;;;;;;;;;;12.60;75.20;;;;;;4898524;29;19932;-77
2021/01/21 13:34:45;;;;;;;;;;;12.60;75.00;;;;;;4887206;29;19924;-78
2021/01/21 13:37:16;;;;;;;;;;;12.60;76.00;;;;;;4892168;29;19930;-76
2021/01/21 13:39:59;;;;;;;;;;;12.60;77.00;;;;;;4905232;29;19923;-78
2021/01/21 13:42:28;;;;;;;;;;;12.60;77.90;;;;;;4888643;29;19923;-77
2021/01/21 13:44:56;;;;;;;;;;;12.60;80.00;;;;;;4883272;29;20354;-77
2021/01/21 13:47:24;;;;;;;;;;;12.50;80.80;;;;;;4883793;29;19924;-77
2021/01/21 13:49:52;;;;;;;;;;;12.50;82.50;;;;;;4884313;29;19924;-78
2021/01/21 13:52:24;;;;;;;;;;;12.50;83.80;;;;;;4867690;29;20273;-77
2021/01/21 13:54:53;;;;;;;;;;;12.50;85.70;;;;;;4867467;29;19923;-77
2021/01/21 13:57:23;;;;;;;;;;;12.40;87.40;;;;;;4883960;29;19923;-77
2021/01/21 13:59:51;;;;;;;;;;;12.50;88.30;;;;;;4883191;29;19924;-78
2021/01/21 14:02:20;;;;;;;;;;;12.50;89.20;;;;;;4872189;29;19947;-78
2021/01/21 14:04:47;;;;;;;;;;;12.40;89.70;;;;;;4873811;29;19924;-78
2021/01/21 14:07:15;;;;;;;;;;;12.40;90.20;;;;;;4888759;29;19935;-78
2021/01/21 14:09:44;;;;;;;;;;;12.40;90.70;;;;;;4886756;29;19923;-77
2021/01/21 14:12:13;;;;;;;;;;;12.40;91.10;;;;;;4872263;29;19931;-77
2021/01/21 14:14:40;;;;;;;;;;;12.30;91.60;;;;;;4870691;29;19924;-77
2021/01/21 14:17:12;;;;;;;;;;;12.30;92.10;;;;;;4871361;29;19924;-77
2021/01/21 14:19:42;;;;;;;;;;;12.30;92.40;;;;;;4887973;29;19935;-77
2021/01/21 14:22:09;;;;;;;;;;;12.30;93.40;;;;;;4887094;29;19927;-77
2021/01/21 14:24:40;;;;;;;;;;;12.20;95.80;;;;;;4889480;29;19923;-79
2021/01/21 14:27:09;;;;;;;;;;;12.10;97.10;;;;;;4886552;29;19931;-77
2021/01/21 14:29:37;;;;;;;;;;;11.90;99.50;;;;;;4873365;29;19923;-77
2021/01/21 14:32:04;;;;;;;;;;;11.80;99.90;;;;;;4871364;29;19930;-79
2021/01/21 14:34:34;;;;;;;;;;;11.70;99.90;;;;;;4904446;29;19932;-77
2021/01/21 14:37:04;;;;;;;;;;;11.70;99.90;;;;;;4903984;29;19927;-77
2021/01/21 14:39:32;;;;;;;;;;;11.50;99.90;;;;;;4889642;29;19924;-77
2021/01/21 14:42:02;;;;;;;;;;;11.50;99.90;;;;;;4875419;29;19938;-77
2021/01/21 14:44:30;;;;;;;;;;;11.40;99.90;;;;;;4892990;29;19938;-78
2021/01/21 14:46:57;;;;;;;;;;;11.30;99.90;;;;;;4909213;29;19924;-77
2021/01/21 14:49:32;;;;;;;;;;;11.20;99.90;;;;;;4910557;29;19923;-77
2021/01/21 14:51:59;;;;;;;;;;;11.10;99.90;;;;;;4876786;29;19927;-78